createdAt,value
2023-05-04T00:01:54.805Z,45.62
2023-05-04T00:04:56.466Z,45.65
2023-05-04T00:07:58.123Z,45.65
2023-05-04T00:10:59.677Z,45.51
2023-05-04T00:14:01.291Z,45.49
2023-05-04T00:17:06.433Z,45.51
2023-05-04T00:20:08.473Z,45.74
2023-05-04T00:23:10.034Z,45.73
2023-05-04T00:26:11.625Z,45.70
2023-05-04T00:29:13.155Z,45.64
2023-05-04T00:32:14.706Z,45.73
2023-05-04T00:35:16.360Z,45.87
2023-05-04T00:38:19.203Z,45.74
2023-05-04T00:41:21.827Z,45.82
2023-05-04T00:44:26.416Z,45.94
2023-05-04T00:47:29.893Z,45.73
2023-05-04T00:50:31.701Z,45.83
2023-05-04T00:53:33.333Z,45.70
2023-05-04T00:56:41.141Z,45.70
2023-05-04T00:59:42.709Z,46.17
2023-05-04T01:02:44.400Z,45.77
2023-05-04T01:06:11.844Z,45.88
2023-05-04T01:09:27.929Z,45.99
2023-05-04T01:12:42.792Z,45.86
2023-05-04T01:15:44.739Z,46.10
2023-05-04T01:18:46.566Z,46.27
2023-05-04T01:21:48.137Z,46.37
2023-05-04T01:24:50.710Z,45.95
2023-05-04T01:27:55.820Z,46.24
2023-05-04T01:31:00.535Z,46.17
2023-05-04T01:34:03.142Z,46.18
2023-05-04T01:37:05.170Z,46.22
2023-05-04T01:40:07.319Z,46.21
2023-05-04T01:43:08.873Z,46.15
2023-05-04T01:46:10.573Z,46.29
2023-05-04T01:49:12.243Z,46.42
2023-05-04T01:52:13.791Z,46.50
2023-05-04T01:55:15.420Z,46.47
2023-05-04T01:58:19.014Z,46.29
2023-05-04T02:01:21.157Z,46.31
2023-05-04T02:04:22.866Z,46.50
2023-05-04T02:07:24.502Z,46.65
2023-05-04T02:10:26.117Z,46.44
2023-05-04T02:13:27.738Z,46.31
2023-05-04T02:16:29.334Z,46.46
2023-05-04T02:19:31.396Z,46.47
2023-05-04T02:22:32.960Z,46.72
2023-05-04T02:25:34.511Z,46.58
2023-05-04T02:28:36.108Z,46.89
2023-05-04T02:31:37.739Z,46.69
2023-05-04T02:34:39.484Z,46.91
2023-05-04T02:37:41.053Z,46.65
2023-05-04T02:40:42.630Z,47.05
2023-05-04T02:43:44.210Z,46.68
2023-05-04T02:46:45.794Z,46.88
2023-05-04T02:49:47.396Z,46.80
2023-05-04T02:52:48.907Z,47.02
2023-05-04T02:55:50.471Z,46.70
2023-05-04T02:58:52.058Z,47.19
2023-05-04T03:01:53.724Z,47.22
2023-05-04T03:04:55.425Z,47.15
2023-05-04T03:07:57.001Z,46.98
2023-05-04T03:10:58.716Z,46.89
2023-05-04T03:14:00.304Z,46.86
2023-05-04T03:17:02.480Z,47.25
2023-05-04T03:20:04.885Z,47.23
2023-05-04T03:23:06.792Z,47.29
2023-05-04T03:26:08.368Z,47.28
2023-05-04T03:29:10.814Z,47.00
2023-05-04T03:32:13.405Z,46.90
2023-05-04T03:35:15.385Z,47.15
2023-05-04T03:38:19.021Z,47.20
2023-05-04T03:41:20.844Z,47.12
2023-05-04T03:44:22.393Z,47.30
2023-05-04T03:47:24.020Z,47.03
2023-05-04T03:50:25.669Z,47.33
2023-05-04T03:53:27.551Z,47.37
2023-05-04T03:56:29.348Z,47.41
2023-05-04T03:59:31.230Z,47.20
2023-05-04T04:02:33.016Z,47.46
2023-05-04T04:05:34.716Z,47.12
2023-05-04T04:08:36.857Z,47.37
2023-05-04T04:11:38.477Z,47.38
2023-05-04T04:14:40.004Z,47.41
2023-05-04T04:17:41.667Z,47.24
2023-05-04T04:20:43.322Z,47.34
2023-05-04T04:23:44.953Z,47.27
2023-05-04T04:26:46.938Z,47.45
2023-05-04T04:29:48.486Z,47.22
2023-05-04T04:32:50.332Z,47.46
2023-05-04T04:35:53.195Z,47.41
2023-05-04T04:38:54.725Z,47.67
2023-05-04T04:41:56.293Z,47.67
2023-05-04T04:44:57.838Z,47.62
2023-05-04T04:47:59.475Z,47.40
2023-05-04T04:51:01.051Z,47.38
2023-05-04T04:54:02.606Z,47.53
2023-05-04T04:57:04.315Z,47.73
2023-05-04T05:00:14.522Z,47.53
2023-05-04T05:03:16.221Z,47.56
2023-05-04T05:06:18.137Z,47.69
2023-05-04T05:09:19.745Z,47.48
2023-05-04T05:12:21.298Z,47.67
2023-05-04T05:15:22.859Z,47.58
2023-05-04T05:18:24.811Z,47.42
2023-05-04T05:21:26.886Z,47.57
2023-05-04T05:24:28.420Z,47.59
2023-05-04T05:27:29.975Z,47.80
2023-05-04T05:30:31.894Z,47.63
2023-05-04T05:33:33.752Z,47.79
2023-05-04T05:36:35.960Z,47.56
2023-05-04T05:39:38.390Z,47.67
2023-05-04T05:42:43.211Z,47.49
2023-05-04T05:45:45.695Z,47.46
2023-05-04T05:48:51.181Z,47.76
2023-05-04T05:51:53.806Z,47.84
2023-05-04T05:54:55.376Z,47.57
2023-05-04T05:57:56.958Z,47.50
2023-05-04T06:00:58.545Z,47.67
2023-05-04T06:04:00.329Z,47.67
2023-05-04T06:07:02.066Z,47.74
2023-05-04T06:10:04.722Z,47.65
2023-05-04T06:13:07.119Z,47.74
2023-05-04T06:16:09.290Z,47.72
2023-05-04T06:19:11.504Z,47.61
2023-05-04T06:22:13.484Z,47.50
2023-05-04T06:25:15.932Z,47.61
2023-05-04T06:28:17.856Z,47.52
2023-05-04T06:31:19.938Z,47.69
2023-05-04T06:34:21.639Z,47.58
2023-05-04T06:37:23.530Z,47.54
2023-05-04T06:40:26.378Z,47.52
2023-05-04T06:43:28.677Z,47.62
2023-05-04T06:46:30.939Z,47.47
2023-05-04T06:49:33.547Z,47.56
2023-05-04T06:52:36.176Z,47.54
2023-05-04T06:55:38.132Z,47.39
2023-05-04T06:58:39.686Z,47.57
2023-05-04T07:01:41.557Z,47.37
2023-05-04T07:04:43.196Z,47.27
2023-05-04T07:07:44.738Z,47.41
2023-05-04T07:10:46.717Z,47.31
2023-05-04T07:13:48.332Z,47.46
2023-05-04T07:16:50.195Z,47.27
2023-05-04T07:19:54.645Z,47.44
2023-05-04T07:22:57.200Z,47.42
2023-05-04T07:25:58.974Z,47.32
2023-05-04T07:29:00.551Z,47.42
2023-05-04T07:32:02.457Z,47.38
2023-05-04T07:35:04.366Z,47.23
2023-05-04T07:38:05.949Z,47.17
2023-05-04T07:41:07.617Z,47.22
2023-05-04T07:44:11.206Z,47.07
2023-05-04T07:47:13.010Z,47.05
2023-05-04T07:50:14.824Z,47.16
2023-05-04T07:53:16.559Z,47.11
2023-05-04T07:56:18.111Z,47.16
2023-05-04T07:59:19.998Z,47.27
2023-05-04T08:02:22.152Z,47.02
2023-05-04T08:05:23.867Z,47.17
2023-05-04T08:08:25.680Z,47.03
2023-05-04T08:11:27.351Z,47.00
2023-05-04T08:14:28.898Z,46.88
2023-05-04T08:17:31.025Z,46.99
2023-05-04T08:20:32.672Z,46.83
2023-05-04T08:23:34.634Z,46.83
2023-05-04T08:26:39.671Z,46.73
2023-05-04T08:29:41.762Z,46.81
2023-05-04T08:32:43.368Z,46.70
2023-05-04T08:35:44.936Z,46.74
2023-05-04T08:38:46.494Z,46.70
2023-05-04T08:41:48.178Z,46.56
2023-05-04T08:44:49.877Z,46.63
2023-05-04T08:47:51.765Z,46.61
2023-05-04T08:50:53.965Z,46.59
2023-05-04T08:53:56.425Z,46.55
2023-05-04T08:56:58.819Z,46.49
2023-05-04T09:00:01.465Z,46.42
2023-05-04T09:03:04.844Z,46.34
2023-05-04T09:06:07.920Z,46.31
2023-05-04T09:09:10.411Z,46.12
2023-05-04T09:12:12.570Z,46.05
2023-05-04T09:15:18.985Z,46.01
2023-05-04T09:18:20.777Z,46.09
2023-05-04T09:21:29.873Z,45.83
2023-05-04T09:24:31.431Z,46.01
2023-05-04T09:27:33.001Z,45.92
2023-05-04T09:30:34.694Z,45.78
2023-05-04T09:33:37.153Z,45.71
2023-05-04T09:36:38.693Z,45.66
2023-05-04T09:39:58.712Z,45.37
2023-05-04T09:43:01.120Z,45.13
2023-05-04T09:46:02.899Z,45.14
2023-05-04T09:49:04.591Z,45.23
2023-05-04T09:52:06.883Z,44.96
2023-05-04T09:55:11.593Z,45.12
2023-05-04T09:58:18.843Z,44.97
2023-05-04T10:01:20.729Z,44.68
2023-05-04T10:04:22.899Z,44.58
2023-05-04T10:07:25.043Z,44.35
2023-05-04T10:10:27.199Z,44.68
2023-05-04T10:13:29.204Z,44.36
2023-05-04T10:16:39.924Z,44.35
2023-05-04T10:20:08.679Z,44.31
2023-05-04T10:23:38.394Z,44.29
2023-05-04T10:27:17.223Z,44.08
2023-05-04T10:30:19.304Z,43.91
2023-05-04T10:33:20.862Z,43.99
2023-05-04T10:36:22.455Z,44.17
2023-05-04T10:39:26.212Z,43.98
2023-05-04T10:42:28.814Z,43.89
2023-05-04T10:45:37.989Z,43.93
2023-05-04T10:48:39.646Z,43.69
2023-05-04T10:51:49.130Z,43.82
2023-05-04T10:55:02.268Z,43.67
2023-05-04T10:58:04.018Z,43.43
2023-05-04T11:01:12.704Z,43.39
2023-05-04T11:04:21.547Z,43.42
2023-05-04T11:07:38.902Z,43.31
2023-05-04T11:10:41.012Z,43.19
2023-05-04T11:13:46.773Z,43.17
2023-05-04T11:16:48.363Z,43.39
2023-05-04T11:19:52.059Z,43.15
2023-05-04T11:22:54.468Z,42.98
2023-05-04T11:25:56.586Z,42.96
2023-05-04T11:28:58.181Z,43.06
2023-05-04T11:31:59.840Z,42.99
2023-05-04T11:35:02.550Z,42.85
2023-05-04T11:38:04.617Z,42.85
2023-05-04T11:41:06.518Z,42.90
2023-05-04T11:44:08.696Z,42.75
2023-05-04T11:47:10.288Z,42.73
2023-05-04T11:50:13.385Z,42.47
2023-05-04T11:53:15.799Z,42.37
2023-05-04T11:56:17.329Z,42.34
2023-05-04T11:59:18.876Z,42.48
2023-05-04T12:02:20.475Z,42.32
2023-05-04T12:05:22.155Z,42.23
2023-05-04T12:08:32.348Z,42.42
2023-05-04T12:11:35.689Z,42.16
2023-05-04T12:14:47.452Z,41.88
2023-05-04T12:17:49.288Z,42.13
2023-05-04T12:20:51.032Z,41.71
2023-05-04T12:23:53.270Z,41.80
2023-05-04T12:26:54.889Z,41.74
2023-05-04T12:29:56.542Z,41.96
2023-05-04T12:32:58.146Z,41.70
2023-05-04T12:36:00.787Z,41.52
2023-05-04T12:39:02.607Z,41.78
2023-05-04T12:42:05.727Z,41.25
2023-05-04T12:45:07.902Z,41.46
2023-05-04T12:48:09.659Z,41.38
2023-05-04T12:51:11.218Z,41.36
2023-05-04T12:54:12.939Z,40.98
2023-05-04T12:57:14.539Z,41.21
2023-05-04T13:00:16.391Z,40.92
2023-05-04T13:03:18.682Z,41.02
2023-05-04T13:06:20.440Z,41.00
2023-05-04T13:09:21.990Z,41.12
2023-05-04T13:12:24.105Z,40.93
2023-05-04T13:15:25.694Z,41.01
2023-05-04T13:18:27.963Z,40.43
2023-05-04T13:21:29.558Z,40.71
2023-05-04T13:24:31.693Z,40.39
2023-05-04T13:27:33.568Z,40.49
2023-05-04T13:30:35.228Z,40.21
2023-05-04T13:33:40.819Z,40.10
2023-05-04T13:36:43.246Z,40.20
2023-05-04T13:39:45.815Z,40.13
2023-05-04T13:42:48.985Z,40.59
2023-05-04T13:45:52.000Z,40.34
2023-05-04T13:48:56.905Z,40.19
2023-05-04T13:52:00.406Z,40.06
2023-05-04T13:55:03.446Z,40.18
2023-05-04T13:58:05.483Z,39.86
2023-05-04T14:01:07.236Z,39.98
2023-05-04T14:04:10.275Z,39.91
2023-05-04T14:07:12.907Z,39.66
2023-05-04T14:10:15.503Z,39.87
2023-05-04T14:13:17.899Z,39.64
2023-05-04T14:16:22.909Z,39.86
2023-05-04T14:19:26.487Z,39.53
2023-05-04T14:22:28.595Z,39.77
2023-05-04T14:25:30.908Z,39.56
2023-05-04T14:28:33.858Z,39.68
2023-05-04T14:31:36.882Z,39.51
2023-05-04T14:34:39.156Z,39.62
2023-05-04T14:37:42.017Z,39.56
2023-05-04T14:40:44.337Z,39.47
2023-05-04T14:43:48.055Z,39.49
2023-05-04T14:46:50.779Z,39.13
2023-05-04T14:49:53.589Z,39.13
2023-05-04T14:52:56.005Z,39.23
2023-05-04T14:55:58.734Z,39.45
2023-05-04T14:59:02.303Z,39.08
2023-05-04T15:02:06.995Z,38.98
2023-05-04T15:05:12.820Z,39.13
2023-05-04T15:08:15.251Z,39.04
2023-05-04T15:11:19.377Z,39.23
2023-05-04T15:14:22.092Z,38.97
2023-05-04T15:17:25.123Z,39.31
2023-05-04T15:20:27.550Z,38.97
2023-05-04T15:23:30.260Z,39.17
2023-05-04T15:26:34.177Z,39.16
2023-05-04T15:29:36.791Z,38.94
2023-05-04T15:32:39.279Z,38.95
2023-05-04T15:35:41.805Z,38.83
2023-05-04T15:38:44.331Z,38.98
2023-05-04T15:41:46.203Z,38.99
2023-05-04T15:44:48.745Z,38.96
2023-05-04T15:47:51.091Z,38.99
2023-05-04T15:50:53.351Z,38.98
2023-05-04T15:53:55.393Z,38.89
2023-05-04T15:56:57.943Z,38.97
2023-05-04T16:00:03.115Z,38.79
2023-05-04T16:03:08.676Z,38.65
2023-05-04T16:06:12.328Z,38.63
2023-05-04T16:09:18.601Z,38.69
2023-05-04T16:12:21.227Z,38.75
2023-05-04T16:15:24.104Z,38.53
2023-05-04T16:18:27.299Z,38.71
2023-05-04T16:21:29.935Z,38.74
2023-05-04T16:24:32.488Z,38.71
2023-05-04T16:27:34.877Z,38.45
2023-05-04T16:30:37.478Z,38.69
2023-05-04T16:33:41.789Z,38.77
2023-05-04T16:36:44.241Z,38.65
2023-05-04T16:39:46.263Z,38.42
2023-05-04T16:42:48.221Z,38.55
2023-05-04T16:45:50.719Z,38.70
2023-05-04T16:48:53.877Z,38.83
2023-05-04T16:51:56.279Z,38.79
2023-05-04T16:54:58.526Z,38.82
2023-05-04T16:58:00.908Z,38.76
2023-05-04T17:01:03.272Z,38.95
2023-05-04T17:04:05.908Z,38.88
2023-05-04T17:07:10.659Z,38.95
2023-05-04T17:10:15.010Z,38.97
2023-05-04T17:13:18.292Z,38.92
2023-05-04T17:16:20.924Z,39.01
2023-05-04T17:19:23.109Z,38.82
2023-05-04T17:22:25.813Z,39.02
2023-05-04T17:25:29.316Z,38.92
2023-05-04T17:28:31.204Z,39.14
2023-05-04T17:31:34.392Z,39.23
2023-05-04T17:34:37.292Z,39.30
2023-05-04T17:37:39.534Z,39.11
2023-05-04T17:40:42.371Z,38.88
2023-05-04T17:43:46.335Z,39.34
2023-05-04T17:46:49.113Z,39.33
2023-05-04T17:49:51.501Z,39.05
2023-05-04T17:52:54.914Z,39.18
2023-05-04T17:55:56.758Z,39.27
2023-05-04T17:58:58.998Z,39.27
2023-05-04T18:02:01.881Z,39.13
2023-05-04T18:05:04.361Z,39.29
2023-05-04T18:08:07.299Z,39.30
2023-05-04T18:11:09.698Z,39.23
2023-05-04T18:14:12.338Z,39.47
2023-05-04T18:17:14.959Z,39.50
2023-05-04T18:20:16.523Z,39.22
2023-05-04T18:23:18.066Z,39.20
2023-05-04T18:26:22.942Z,39.38
2023-05-04T18:29:24.795Z,39.60
2023-05-04T18:32:26.773Z,39.24
2023-05-04T18:35:28.429Z,39.54
2023-05-04T18:38:29.976Z,39.45
2023-05-04T18:41:31.542Z,39.39
2023-05-04T18:44:33.141Z,39.50
2023-05-04T18:47:35.451Z,39.71
2023-05-04T18:50:37.083Z,39.54
2023-05-04T18:53:38.830Z,39.50
2023-05-04T18:56:40.381Z,39.46
2023-05-04T18:59:42.050Z,39.59
2023-05-04T19:02:43.623Z,39.82
2023-05-04T19:05:45.235Z,39.72
2023-05-04T19:08:46.813Z,39.69
2023-05-04T19:11:48.344Z,39.63
2023-05-04T19:14:51.221Z,40.00
2023-05-04T19:17:53.088Z,39.86
2023-05-04T19:20:54.781Z,39.59
2023-05-04T19:23:56.410Z,39.97
2023-05-04T19:27:00.271Z,39.79
2023-05-04T19:30:02.460Z,39.75
2023-05-04T19:33:05.458Z,39.86
2023-05-04T19:36:07.263Z,40.13
2023-05-04T19:39:10.045Z,40.01
2023-05-04T19:42:11.680Z,40.14
2023-05-04T19:45:14.188Z,40.03
2023-05-04T19:48:17.485Z,40.37
2023-05-04T19:51:19.055Z,40.42
2023-05-04T19:54:20.695Z,40.19
2023-05-04T19:57:22.663Z,40.29
2023-05-04T20:00:24.371Z,40.40
2023-05-04T20:03:26.056Z,40.65
2023-05-04T20:06:27.916Z,40.69
2023-05-04T20:09:29.462Z,40.76
2023-05-04T20:12:31.682Z,40.77
2023-05-04T20:15:33.276Z,40.80
2023-05-04T20:18:34.852Z,40.79
2023-05-04T20:21:36.496Z,40.85
2023-05-04T20:24:38.169Z,40.88
2023-05-04T20:27:39.779Z,40.92
2023-05-04T20:30:41.518Z,41.02
2023-05-04T20:33:43.338Z,41.08
2023-05-04T20:36:48.223Z,41.05
2023-05-04T20:39:52.799Z,41.10
2023-05-04T20:42:54.424Z,41.19
2023-05-04T20:45:57.384Z,41.34
2023-05-04T20:48:59.506Z,41.36
2023-05-04T20:52:01.345Z,41.31
2023-05-04T20:55:02.893Z,41.39
2023-05-04T20:58:04.464Z,41.38
2023-05-04T21:01:06.578Z,41.46
2023-05-04T21:04:10.141Z,41.57
2023-05-04T21:07:11.690Z,41.57
2023-05-04T21:10:13.269Z,41.56
2023-05-04T21:13:14.925Z,41.62
2023-05-04T21:16:17.204Z,41.77
2023-05-04T21:19:19.938Z,41.69
2023-05-04T21:22:22.066Z,41.73
2023-05-04T21:25:24.540Z,41.73
2023-05-04T21:28:26.292Z,41.69
2023-05-04T21:31:27.836Z,41.90
2023-05-04T21:34:29.914Z,41.81
2023-05-04T21:37:31.453Z,41.86
2023-05-04T21:40:33.062Z,41.93
2023-05-04T21:43:34.565Z,41.99
2023-05-04T21:46:36.398Z,42.08
2023-05-04T21:49:38.072Z,42.11
2023-05-04T21:52:39.597Z,42.07
2023-05-04T21:55:41.176Z,42.17
2023-05-04T21:58:43.351Z,42.17
2023-05-04T22:01:45.124Z,42.32
2023-05-04T22:04:46.715Z,42.23
2023-05-04T22:07:48.736Z,42.42
2023-05-04T22:10:51.701Z,42.40
2023-05-04T22:13:53.444Z,42.46
2023-05-04T22:16:55.018Z,42.41
2023-05-04T22:19:56.586Z,42.30
2023-05-04T22:22:58.158Z,42.35
2023-05-04T22:25:59.689Z,42.37
2023-05-04T22:29:01.263Z,42.42
2023-05-04T22:32:02.918Z,42.48
2023-05-04T22:35:04.892Z,42.50
2023-05-04T22:38:06.930Z,42.59
2023-05-04T22:41:08.474Z,42.50
2023-05-04T22:44:11.341Z,42.69
2023-05-04T22:47:12.854Z,42.79
2023-05-04T22:50:14.846Z,42.78
2023-05-04T22:53:16.594Z,42.73
2023-05-04T22:56:18.114Z,42.93
2023-05-04T22:59:19.674Z,42.81
2023-05-04T23:02:21.281Z,43.06
2023-05-04T23:05:22.821Z,42.88
2023-05-04T23:08:25.306Z,43.09
2023-05-04T23:11:27.048Z,43.05
2023-05-04T23:14:28.588Z,43.02
2023-05-04T23:17:30.153Z,43.17
2023-05-04T23:20:32.409Z,43.14
2023-05-04T23:23:34.605Z,43.05
2023-05-04T23:26:36.116Z,43.16
2023-05-04T23:29:37.680Z,43.32
2023-05-04T23:32:39.289Z,43.33
2023-05-04T23:35:41.119Z,43.24
2023-05-04T23:38:42.728Z,43.35
2023-05-04T23:41:44.434Z,43.35
2023-05-04T23:44:46.020Z,43.64
2023-05-04T23:47:47.635Z,43.69
2023-05-04T23:50:58.369Z,43.68
2023-05-04T23:54:00.213Z,43.75
2023-05-04T23:57:01.878Z,43.57
